Miami, Florida
Traffic Map
Current Weather Conditions
Miami, Florida
Scattered Clouds
Scattered Clouds
31°
Feels Like: 34°
Wind Chill: 31° Ceiling: Unl
Heat Index: 34° Visibility: 10mi
Dew Point: 22° Wind: 15mph
Humidity: 59% Direction: 100° (E)
Pressure: 30.19in Gusts: 0mph
Raw Report DataKMIA 231453Z 10013KT 10SM FEW033 SCT060 31/22 A3019 RMK AO2 SLP224 T03060217 51008 $
Traffic Incident Summary
Active as of:
Severity:
Category:
InformationThere was an issue retrieving the traffic information for this location. Please try a different location or try again shortly.
Advertisements
Track Severe Weather on mobile